Terminal Aerodrome Forecast
Issued by NWS Mt. Holly, NJ

Home | Current Version | Previous Version | Text Only | Print | Product List | Glossary On
Versions: 1 2 3 4 5 6 7 8 9 10 11 12 13 14 15 16 17 18 19 20 21 22 23 24 25
677
FTUS41 KPHI 231510 AAA
TAFPHL
TAF AMD
KPHL 231510Z 2315/2418 23006KT 2SM BR OVC004
     FM231600 23006KT 5SM HZ OVC005
     FM231830 24007KT P6SM SCT006 BKN015
     FM232000 21006KT P6SM BKN060
     FM240700 19004KT 3SM BR OVC010
     FM240900 18003KT 3/4SM BR OVC003
     FM241500 20010KT P6SM BKN035=

USA.gov is the U.S. government's official web portal to all federal, state and local government web resources and services.